sensor_id;sensor_type;location;lat;lon;timestamp;P1;durP1;ratioP1;P2;durP2;ratioP2
77076;SDS011;66003;52.286;104.306;2023-05-16T00:01:42;7.60;;;4.03;;
77076;SDS011;66003;52.286;104.306;2023-05-16T00:04:09;8.18;;;4.40;;
77076;SDS011;66003;52.286;104.306;2023-05-16T00:06:36;9.48;;;3.72;;
77076;SDS011;66003;52.286;104.306;2023-05-16T00:09:02;7.78;;;4.60;;
77076;SDS011;66003;52.286;104.306;2023-05-16T00:11:28;9.13;;;3.35;;
77076;SDS011;66003;52.286;104.306;2023-05-16T00:13:55;10.05;;;4.03;;
77076;SDS011;66003;52.286;104.306;2023-05-16T00:16:21;8.38;;;3.30;;
77076;SDS011;66003;52.286;104.306;2023-05-16T00:18:50;5.15;;;3.13;;
77076;SDS011;66003;52.286;104.306;2023-05-16T00:21:17;7.35;;;3.08;;
77076;SDS011;66003;52.286;104.306;2023-05-16T00:23:43;5.50;;;2.75;;
77076;SDS011;66003;52.286;104.306;2023-05-16T00:26:09;8.43;;;2.78;;
77076;SDS011;66003;52.286;104.306;2023-05-16T00:28:36;6.60;;;3.05;;
77076;SDS011;66003;52.286;104.306;2023-05-16T00:31:02;5.22;;;3.22;;
77076;SDS011;66003;52.286;104.306;2023-05-16T00:33:28;10.82;;;2.95;;
77076;SDS011;66003;52.286;104.306;2023-05-16T00:35:55;7.90;;;3.05;;
77076;SDS011;66003;52.286;104.306;2023-05-16T00:38:21;28.65;;;5.15;;
77076;SDS011;66003;52.286;104.306;2023-05-16T00:40:49;8.13;;;3.55;;
77076;SDS011;66003;52.286;104.306;2023-05-16T00:43:15;7.65;;;2.97;;
77076;SDS011;66003;52.286;104.306;2023-05-16T00:45:42;8.80;;;3.72;;
77076;SDS011;66003;52.286;104.306;2023-05-16T00:48:09;9.52;;;3.25;;
77076;SDS011;66003;52.286;104.306;2023-05-16T00:50:37;8.93;;;3.25;;
77076;SDS011;66003;52.286;104.306;2023-05-16T00:53:03;9.38;;;2.85;;
77076;SDS011;66003;52.286;104.306;2023-05-16T00:55:30;7.22;;;3.20;;
77076;SDS011;66003;52.286;104.306;2023-05-16T00:57:57;8.75;;;3.80;;
77076;SDS011;66003;52.286;104.306;2023-05-16T01:00:24;12.57;;;4.38;;
77076;SDS011;66003;52.286;104.306;2023-05-16T01:02:50;9.50;;;3.60;;
77076;SDS011;66003;52.286;104.306;2023-05-16T01:05:18;5.32;;;3.38;;
77076;SDS011;66003;52.286;104.306;2023-05-16T01:07:45;10.45;;;3.88;;
77076;SDS011;66003;52.286;104.306;2023-05-16T01:10:11;12.85;;;3.30;;
77076;SDS011;66003;52.286;104.306;2023-05-16T01:12:47;6.97;;;2.85;;
77076;SDS011;66003;52.286;104.306;2023-05-16T01:15:25;5.03;;;3.38;;
77076;SDS011;66003;52.286;104.306;2023-05-16T01:20:41;9.02;;;3.33;;
77076;SDS011;66003;52.286;104.306;2023-05-16T01:28:16;6.28;;;2.95;;
77076;SDS011;66003;52.286;104.306;2023-05-16T01:30:43;7.75;;;3.30;;
77076;SDS011;66003;52.286;104.306;2023-05-16T01:33:10;7.43;;;3.97;;
77076;SDS011;66003;52.286;104.306;2023-05-16T01:35:39;5.65;;;3.20;;
77076;SDS011;66003;52.286;104.306;2023-05-16T01:38:35;9.90;;;3.65;;
77076;SDS011;66003;52.286;104.306;2023-05-16T01:41:26;8.70;;;3.58;;
77076;SDS011;66003;52.286;104.306;2023-05-16T01:44:18;8.73;;;3.30;;
77076;SDS011;66003;52.286;104.306;2023-05-16T01:46:58;5.63;;;3.17;;
77076;SDS011;66003;52.286;104.306;2023-05-16T01:52:04;10.73;;;3.80;;
77076;SDS011;66003;52.286;104.306;2023-05-16T01:54:38;9.88;;;4.18;;
77076;SDS011;66003;52.286;104.306;2023-05-16T01:57:10;8.00;;;3.55;;
77076;SDS011;66003;52.286;104.306;2023-05-16T01:59:38;12.35;;;4.15;;
77076;SDS011;66003;52.286;104.306;2023-05-16T02:02:07;4.60;;;3.15;;
77076;SDS011;66003;52.286;104.306;2023-05-16T02:04:33;6.32;;;2.47;;
77076;SDS011;66003;52.286;104.306;2023-05-16T02:06:59;7.80;;;3.03;;
77076;SDS011;66003;52.286;104.306;2023-05-16T02:09:26;7.63;;;3.15;;
77076;SDS011;66003;52.286;104.306;2023-05-16T02:11:52;7.68;;;3.08;;
77076;SDS011;66003;52.286;104.306;2023-05-16T02:14:18;8.63;;;4.00;;
77076;SDS011;66003;52.286;104.306;2023-05-16T02:16:45;9.65;;;4.13;;
77076;SDS011;66003;52.286;104.306;2023-05-16T02:19:11;7.57;;;3.65;;
77076;SDS011;66003;52.286;104.306;2023-05-16T02:21:37;8.18;;;3.63;;
77076;SDS011;66003;52.286;104.306;2023-05-16T02:24:04;9.50;;;3.38;;
77076;SDS011;66003;52.286;104.306;2023-05-16T02:26:35;7.10;;;3.55;;
77076;SDS011;66003;52.286;104.306;2023-05-16T02:29:01;6.25;;;3.45;;
77076;SDS011;66003;52.286;104.306;2023-05-16T02:31:28;9.35;;;3.55;;
77076;SDS011;66003;52.286;104.306;2023-05-16T02:33:58;11.93;;;4.05;;
77076;SDS011;66003;52.286;104.306;2023-05-16T02:36:24;10.63;;;5.30;;
77076;SDS011;66003;52.286;104.306;2023-05-16T02:38:51;16.15;;;9.90;;
77076;SDS011;66003;52.286;104.306;2023-05-16T02:41:17;12.48;;;5.13;;
77076;SDS011;66003;52.286;104.306;2023-05-16T02:43:47;31.17;;;14.20;;
77076;SDS011;66003;52.286;104.306;2023-05-16T02:46:25;25.30;;;12.85;;
77076;SDS011;66003;52.286;104.306;2023-05-16T02:48:55;18.10;;;10.15;;
77076;SDS011;66003;52.286;104.306;2023-05-16T02:51:22;24.40;;;13.10;;
77076;SDS011;66003;52.286;104.306;2023-05-16T02:53:50;16.52;;;6.55;;
77076;SDS011;66003;52.286;104.306;2023-05-16T02:56:18;8.40;;;4.82;;
77076;SDS011;66003;52.286;104.306;2023-05-16T02:58:47;16.98;;;7.18;;
77076;SDS011;66003;52.286;104.306;2023-05-16T03:01:15;19.45;;;10.25;;
77076;SDS011;66003;52.286;104.306;2023-05-16T03:03:42;12.80;;;7.57;;
77076;SDS011;66003;52.286;104.306;2023-05-16T03:06:08;8.70;;;4.50;;
77076;SDS011;66003;52.286;104.306;2023-05-16T03:08:35;11.70;;;3.63;;
77076;SDS011;66003;52.286;104.306;2023-05-16T03:11:01;7.60;;;2.88;;
77076;SDS011;66003;52.286;104.306;2023-05-16T03:13:27;6.38;;;2.70;;
77076;SDS011;66003;52.286;104.306;2023-05-16T03:15:54;9.27;;;2.38;;
77076;SDS011;66003;52.286;104.306;2023-05-16T03:18:21;7.13;;;2.13;;
77076;SDS011;66003;52.286;104.306;2023-05-16T03:20:47;7.75;;;2.00;;
77076;SDS011;66003;52.286;104.306;2023-05-16T03:23:13;5.22;;;1.65;;
77076;SDS011;66003;52.286;104.306;2023-05-16T03:25:39;4.90;;;1.70;;
77076;SDS011;66003;52.286;104.306;2023-05-16T03:28:07;8.55;;;3.28;;
77076;SDS011;66003;52.286;104.306;2023-05-16T03:30:34;5.53;;;1.52;;
77076;SDS011;66003;52.286;104.306;2023-05-16T03:33:01;9.95;;;2.75;;
77076;SDS011;66003;52.286;104.306;2023-05-16T03:35:29;4.25;;;1.80;;
77076;SDS011;66003;52.286;104.306;2023-05-16T03:37:59;6.80;;;1.77;;
77076;SDS011;66003;52.286;104.306;2023-05-16T03:40:25;4.72;;;2.78;;
77076;SDS011;66003;52.286;104.306;2023-05-16T03:42:52;3.15;;;1.50;;
77076;SDS011;66003;52.286;104.306;2023-05-16T03:45:18;5.30;;;2.00;;
77076;SDS011;66003;52.286;104.306;2023-05-16T03:47:44;6.75;;;2.00;;
77076;SDS011;66003;52.286;104.306;2023-05-16T03:52:36;4.50;;;1.63;;
77076;SDS011;66003;52.286;104.306;2023-05-16T03:55:02;4.80;;;1.58;;
77076;SDS011;66003;52.286;104.306;2023-05-16T03:57:31;3.28;;;1.63;;
77076;SDS011;66003;52.286;104.306;2023-05-16T03:59:58;5.60;;;1.95;;
77076;SDS011;66003;52.286;104.306;2023-05-16T04:02:25;6.65;;;2.45;;
77076;SDS011;66003;52.286;104.306;2023-05-16T04:04:51;7.47;;;1.90;;
77076;SDS011;66003;52.286;104.306;2023-05-16T04:07:18;6.00;;;2.17;;
77076;SDS011;66003;52.286;104.306;2023-05-16T04:09:44;3.60;;;1.98;;
77076;SDS011;66003;52.286;104.306;2023-05-16T04:12:11;6.32;;;2.08;;
77076;SDS011;66003;52.286;104.306;2023-05-16T04:17:03;4.50;;;1.48;;
77076;SDS011;66003;52.286;104.306;2023-05-16T04:19:30;4.40;;;1.88;;
77076;SDS011;66003;52.286;104.306;2023-05-16T04:21:57;5.20;;;1.50;;
77076;SDS011;66003;52.286;104.306;2023-05-16T04:26:51;3.60;;;2.10;;
77076;SDS011;66003;52.286;104.306;2023-05-16T04:29:17;6.40;;;2.13;;
77076;SDS011;66003;52.286;104.306;2023-05-16T04:31:44;8.68;;;2.63;;
77076;SDS011;66003;52.286;104.306;2023-05-16T04:34:10;4.57;;;2.08;;
77076;SDS011;66003;52.286;104.306;2023-05-16T04:36:36;5.68;;;2.05;;
77076;SDS011;66003;52.286;104.306;2023-05-16T04:39:03;5.88;;;1.67;;
77076;SDS011;66003;52.286;104.306;2023-05-16T04:41:29;5.57;;;2.42;;
77076;SDS011;66003;52.286;104.306;2023-05-16T04:43:55;4.40;;;1.85;;
77076;SDS011;66003;52.286;104.306;2023-05-16T04:46:21;4.80;;;2.40;;
77076;SDS011;66003;52.286;104.306;2023-05-16T04:51:13;5.60;;;1.95;;
77076;SDS011;66003;52.286;104.306;2023-05-16T04:53:40;3.65;;;1.55;;
77076;SDS011;66003;52.286;104.306;2023-05-16T04:56:06;6.05;;;2.22;;
77076;SDS011;66003;52.286;104.306;2023-05-16T04:58:32;7.32;;;2.45;;
77076;SDS011;66003;52.286;104.306;2023-05-16T05:03:24;4.20;;;1.83;;
77076;SDS011;66003;52.286;104.306;2023-05-16T05:05:51;4.65;;;2.03;;
77076;SDS011;66003;52.286;104.306;2023-05-16T05:08:17;6.90;;;2.17;;
77076;SDS011;66003;52.286;104.306;2023-05-16T05:10:43;7.15;;;2.15;;
77076;SDS011;66003;52.286;104.306;2023-05-16T05:13:10;7.57;;;2.40;;
77076;SDS011;66003;52.286;104.306;2023-05-16T05:15:36;4.43;;;1.58;;
77076;SDS011;66003;52.286;104.306;2023-05-16T05:18:02;5.68;;;2.17;;
77076;SDS011;66003;52.286;104.306;2023-05-16T05:20:29;5.50;;;2.35;;
77076;SDS011;66003;52.286;104.306;2023-05-16T05:22:55;5.03;;;1.92;;
77076;SDS011;66003;52.286;104.306;2023-05-16T05:25:21;8.10;;;2.55;;
77076;SDS011;66003;52.286;104.306;2023-05-16T05:27:48;4.82;;;2.40;;
77076;SDS011;66003;52.286;104.306;2023-05-16T05:30:15;6.50;;;2.40;;
77076;SDS011;66003;52.286;104.306;2023-05-16T05:35:07;6.82;;;1.60;;
77076;SDS011;66003;52.286;104.306;2023-05-16T05:37:33;6.10;;;2.13;;
77076;SDS011;66003;52.286;104.306;2023-05-16T05:40:00;4.93;;;1.75;;
77076;SDS011;66003;52.286;104.306;2023-05-16T05:42:31;7.20;;;2.88;;
77076;SDS011;66003;52.286;104.306;2023-05-16T05:44:57;16.48;;;5.85;;
77076;SDS011;66003;52.286;104.306;2023-05-16T05:47:24;9.05;;;3.70;;
77076;SDS011;66003;52.286;104.306;2023-05-16T05:49:50;4.47;;;1.77;;
77076;SDS011;66003;52.286;104.306;2023-05-16T05:52:17;5.43;;;2.17;;
77076;SDS011;66003;52.286;104.306;2023-05-16T05:54:44;5.50;;;2.30;;
77076;SDS011;66003;52.286;104.306;2023-05-16T05:57:10;9.50;;;2.33;;
77076;SDS011;66003;52.286;104.306;2023-05-16T06:02:02;5.70;;;1.80;;
77076;SDS011;66003;52.286;104.306;2023-05-16T06:04:28;4.28;;;1.77;;
77076;SDS011;66003;52.286;104.306;2023-05-16T06:06:55;5.97;;;2.25;;
77076;SDS011;66003;52.286;104.306;2023-05-16T06:09:22;7.50;;;2.80;;
77076;SDS011;66003;52.286;104.306;2023-05-16T06:11:48;5.13;;;2.50;;
77076;SDS011;66003;52.286;104.306;2023-05-16T06:14:15;6.90;;;2.47;;
77076;SDS011;66003;52.286;104.306;2023-05-16T06:16:41;7.43;;;2.67;;
77076;SDS011;66003;52.286;104.306;2023-05-16T06:19:08;4.05;;;1.83;;
77076;SDS011;66003;52.286;104.306;2023-05-16T06:21:34;5.60;;;3.08;;
77076;SDS011;66003;52.286;104.306;2023-05-16T06:24:00;6.38;;;2.30;;
77076;SDS011;66003;52.286;104.306;2023-05-16T06:26:27;3.95;;;1.42;;
77076;SDS011;66003;52.286;104.306;2023-05-16T06:31:19;6.30;;;1.77;;
77076;SDS011;66003;52.286;104.306;2023-05-16T06:33:45;5.28;;;1.48;;
77076;SDS011;66003;52.286;104.306;2023-05-16T06:36:11;6.78;;;2.05;;
77076;SDS011;66003;52.286;104.306;2023-05-16T06:41:03;6.53;;;2.65;;
77076;SDS011;66003;52.286;104.306;2023-05-16T06:43:30;6.22;;;1.65;;
77076;SDS011;66003;52.286;104.306;2023-05-16T06:48:21;5.25;;;1.80;;
77076;SDS011;66003;52.286;104.306;2023-05-16T06:53:16;3.42;;;1.58;;
77076;SDS011;66003;52.286;104.306;2023-05-16T06:55:43;6.15;;;2.40;;
77076;SDS011;66003;52.286;104.306;2023-05-16T06:58:09;5.22;;;2.13;;
77076;SDS011;66003;52.286;104.306;2023-05-16T07:00:36;4.07;;;1.88;;
77076;SDS011;66003;52.286;104.306;2023-05-16T07:03:02;4.07;;;2.95;;
77076;SDS011;66003;52.286;104.306;2023-05-16T07:05:29;3.90;;;1.65;;
77076;SDS011;66003;52.286;104.306;2023-05-16T07:07:56;4.97;;;2.97;;
77076;SDS011;66003;52.286;104.306;2023-05-16T07:10:22;4.68;;;1.95;;
77076;SDS011;66003;52.286;104.306;2023-05-16T07:12:48;6.03;;;1.73;;
77076;SDS011;66003;52.286;104.306;2023-05-16T07:15:14;3.75;;;1.75;;
77076;SDS011;66003;52.286;104.306;2023-05-16T07:17:41;5.95;;;1.83;;
77076;SDS011;66003;52.286;104.306;2023-05-16T07:22:38;9.15;;;2.83;;
77076;SDS011;66003;52.286;104.306;2023-05-16T07:25:04;3.85;;;1.73;;
77076;SDS011;66003;52.286;104.306;2023-05-16T07:27:39;7.30;;;2.25;;
77076;SDS011;66003;52.286;104.306;2023-05-16T07:30:10;4.65;;;1.50;;
77076;SDS011;66003;52.286;104.306;2023-05-16T07:32:37;6.30;;;1.88;;
77076;SDS011;66003;52.286;104.306;2023-05-16T07:35:04;7.85;;;1.58;;
77076;SDS011;66003;52.286;104.306;2023-05-16T07:37:31;6.03;;;2.70;;
77076;SDS011;66003;52.286;104.306;2023-05-16T07:39:57;5.60;;;1.80;;
77076;SDS011;66003;52.286;104.306;2023-05-16T07:42:24;7.45;;;1.85;;
77076;SDS011;66003;52.286;104.306;2023-05-16T07:44:50;5.57;;;2.08;;
77076;SDS011;66003;52.286;104.306;2023-05-16T07:47:16;4.22;;;1.88;;
77076;SDS011;66003;52.286;104.306;2023-05-16T07:49:42;4.63;;;2.05;;
77076;SDS011;66003;52.286;104.306;2023-05-16T07:52:08;5.07;;;2.05;;
77076;SDS011;66003;52.286;104.306;2023-05-16T07:54:35;5.97;;;2.15;;
77076;SDS011;66003;52.286;104.306;2023-05-16T07:57:01;5.10;;;2.08;;
77076;SDS011;66003;52.286;104.306;2023-05-16T07:59:28;7.20;;;2.53;;
77076;SDS011;66003;52.286;104.306;2023-05-16T08:01:55;5.80;;;2.08;;
77076;SDS011;66003;52.286;104.306;2023-05-16T08:04:21;7.75;;;1.88;;
77076;SDS011;66003;52.286;104.306;2023-05-16T08:09:14;5.47;;;1.98;;
77076;SDS011;66003;52.286;104.306;2023-05-16T08:11:40;6.15;;;1.85;;
77076;SDS011;66003;52.286;104.306;2023-05-16T08:14:22;7.50;;;2.50;;
77076;SDS011;66003;52.286;104.306;2023-05-16T08:17:09;6.32;;;1.92;;
77076;SDS011;66003;52.286;104.306;2023-05-16T08:22:01;8.60;;;2.95;;
77076;SDS011;66003;52.286;104.306;2023-05-16T08:24:28;7.28;;;2.22;;
77076;SDS011;66003;52.286;104.306;2023-05-16T08:29:19;9.88;;;1.77;;
77076;SDS011;66003;52.286;104.306;2023-05-16T08:31:46;10.95;;;1.73;;
77076;SDS011;66003;52.286;104.306;2023-05-16T08:34:13;9.70;;;2.33;;
77076;SDS011;66003;52.286;104.306;2023-05-16T08:36:39;10.52;;;2.42;;
77076;SDS011;66003;52.286;104.306;2023-05-16T08:39:05;4.03;;;2.15;;
77076;SDS011;66003;52.286;104.306;2023-05-16T08:43:57;9.70;;;2.03;;
77076;SDS011;66003;52.286;104.306;2023-05-16T08:48:50;6.05;;;1.75;;
77076;SDS011;66003;52.286;104.306;2023-05-16T08:51:18;5.20;;;1.88;;
77076;SDS011;66003;52.286;104.306;2023-05-16T08:53:49;6.10;;;2.03;;
77076;SDS011;66003;52.286;104.306;2023-05-16T08:56:22;6.97;;;2.08;;
77076;SDS011;66003;52.286;104.306;2023-05-16T08:58:49;3.80;;;2.20;;
77076;SDS011;66003;52.286;104.306;2023-05-16T09:01:22;4.70;;;2.05;;
77076;SDS011;66003;52.286;104.306;2023-05-16T09:03:51;5.60;;;2.28;;
77076;SDS011;66003;52.286;104.306;2023-05-16T09:06:18;5.82;;;2.78;;
77076;SDS011;66003;52.286;104.306;2023-05-16T09:11:10;6.90;;;2.25;;
77076;SDS011;66003;52.286;104.306;2023-05-16T09:16:07;6.05;;;1.75;;
77076;SDS011;66003;52.286;104.306;2023-05-16T09:18:44;6.78;;;2.42;;
77076;SDS011;66003;52.286;104.306;2023-05-16T09:21:12;4.65;;;2.50;;
77076;SDS011;66003;52.286;104.306;2023-05-16T09:23:41;5.28;;;2.05;;
77076;SDS011;66003;52.286;104.306;2023-05-16T09:26:08;5.75;;;1.85;;
77076;SDS011;66003;52.286;104.306;2023-05-16T09:28:37;3.90;;;1.75;;
77076;SDS011;66003;52.286;104.306;2023-05-16T09:31:26;8.02;;;2.28;;
77076;SDS011;66003;52.286;104.306;2023-05-16T09:33:52;3.13;;;1.70;;
77076;SDS011;66003;52.286;104.306;2023-05-16T09:36:21;3.78;;;1.42;;
77076;SDS011;66003;52.286;104.306;2023-05-16T09:41:15;4.45;;;1.85;;
77076;SDS011;66003;52.286;104.306;2023-05-16T09:43:42;3.03;;;1.27;;
77076;SDS011;66003;52.286;104.306;2023-05-16T09:46:12;5.78;;;2.25;;
77076;SDS011;66003;52.286;104.306;2023-05-16T09:48:46;3.72;;;1.33;;
77076;SDS011;66003;52.286;104.306;2023-05-16T09:51:13;3.80;;;1.52;;
77076;SDS011;66003;52.286;104.306;2023-05-16T09:53:39;5.40;;;1.35;;
77076;SDS011;66003;52.286;104.306;2023-05-16T09:56:07;2.97;;;1.17;;
77076;SDS011;66003;52.286;104.306;2023-05-16T09:58:40;4.47;;;1.50;;
77076;SDS011;66003;52.286;104.306;2023-05-16T10:01:08;4.93;;;1.23;;
77076;SDS011;66003;52.286;104.306;2023-05-16T10:03:39;4.15;;;1.83;;
77076;SDS011;66003;52.286;104.306;2023-05-16T10:06:07;4.57;;;1.48;;
77076;SDS011;66003;52.286;104.306;2023-05-16T10:08:34;5.60;;;1.52;;
77076;SDS011;66003;52.286;104.306;2023-05-16T10:11:02;6.95;;;2.70;;
77076;SDS011;66003;52.286;104.306;2023-05-16T10:13:31;4.72;;;1.63;;
77076;SDS011;66003;52.286;104.306;2023-05-16T10:15:59;3.17;;;1.50;;
77076;SDS011;66003;52.286;104.306;2023-05-16T10:18:31;2.63;;;1.38;;
77076;SDS011;66003;52.286;104.306;2023-05-16T10:21:05;5.10;;;1.70;;
77076;SDS011;66003;52.286;104.306;2023-05-16T10:23:35;5.45;;;2.13;;
77076;SDS011;66003;52.286;104.306;2023-05-16T10:26:06;4.38;;;1.90;;
77076;SDS011;66003;52.286;104.306;2023-05-16T10:28:34;4.28;;;2.03;;
77076;SDS011;66003;52.286;104.306;2023-05-16T10:31:00;5.15;;;1.92;;
77076;SDS011;66003;52.286;104.306;2023-05-16T10:33:27;6.15;;;1.90;;
77076;SDS011;66003;52.286;104.306;2023-05-16T10:35:54;9.35;;;2.78;;
77076;SDS011;66003;52.286;104.306;2023-05-16T10:38:21;7.05;;;2.03;;
77076;SDS011;66003;52.286;104.306;2023-05-16T10:40:49;5.70;;;2.45;;
77076;SDS011;66003;52.286;104.306;2023-05-16T10:43:25;6.90;;;2.25;;
77076;SDS011;66003;52.286;104.306;2023-05-16T10:46:12;4.32;;;1.77;;
77076;SDS011;66003;52.286;104.306;2023-05-16T10:48:39;5.47;;;1.90;;
77076;SDS011;66003;52.286;104.306;2023-05-16T10:54:07;6.97;;;1.85;;
77076;SDS011;66003;52.286;104.306;2023-05-16T10:56:35;4.60;;;1.85;;
77076;SDS011;66003;52.286;104.306;2023-05-16T10:59:01;7.22;;;2.28;;
77076;SDS011;66003;52.286;104.306;2023-05-16T11:01:31;5.93;;;1.88;;
77076;SDS011;66003;52.286;104.306;2023-05-16T11:04:03;4.70;;;1.98;;
77076;SDS011;66003;52.286;104.306;2023-05-16T11:06:50;6.00;;;2.33;;
77076;SDS011;66003;52.286;104.306;2023-05-16T11:09:19;5.47;;;1.60;;
77076;SDS011;66003;52.286;104.306;2023-05-16T11:17:05;8.43;;;2.47;;
77076;SDS011;66003;52.286;104.306;2023-05-16T11:24:34;8.32;;;1.70;;
77076;SDS011;66003;52.286;104.306;2023-05-16T11:27:02;5.25;;;1.67;;
77076;SDS011;66003;52.286;104.306;2023-05-16T11:29:30;4.38;;;1.60;;
77076;SDS011;66003;52.286;104.306;2023-05-16T11:32:02;4.22;;;1.50;;
77076;SDS011;66003;52.286;104.306;2023-05-16T11:34:30;5.03;;;1.38;;
77076;SDS011;66003;52.286;104.306;2023-05-16T11:37:02;2.97;;;1.92;;
77076;SDS011;66003;52.286;104.306;2023-05-16T11:39:29;5.97;;;1.20;;
77076;SDS011;66003;52.286;104.306;2023-05-16T11:41:56;3.95;;;1.10;;
77076;SDS011;66003;52.286;104.306;2023-05-16T11:44:22;3.45;;;1.73;;
77076;SDS011;66003;52.286;104.306;2023-05-16T11:46:49;3.47;;;1.38;;
77076;SDS011;66003;52.286;104.306;2023-05-16T11:51:42;7.97;;;1.42;;
77076;SDS011;66003;52.286;104.306;2023-05-16T11:54:08;2.30;;;0.93;;
77076;SDS011;66003;52.286;104.306;2023-05-16T11:56:35;2.78;;;1.88;;
77076;SDS011;66003;52.286;104.306;2023-05-16T11:59:07;2.38;;;1.10;;
77076;SDS011;66003;52.286;104.306;2023-05-16T12:01:38;2.80;;;1.25;;
77076;SDS011;66003;52.286;104.306;2023-05-16T12:04:08;4.97;;;1.50;;
77076;SDS011;66003;52.286;104.306;2023-05-16T12:06:39;4.55;;;1.40;;
77076;SDS011;66003;52.286;104.306;2023-05-16T12:09:13;5.80;;;1.60;;
77076;SDS011;66003;52.286;104.306;2023-05-16T12:11:41;3.42;;;1.50;;
77076;SDS011;66003;52.286;104.306;2023-05-16T12:14:10;2.85;;;1.35;;
77076;SDS011;66003;52.286;104.306;2023-05-16T12:16:39;5.43;;;1.35;;
77076;SDS011;66003;52.286;104.306;2023-05-16T12:19:09;3.13;;;1.15;;
77076;SDS011;66003;52.286;104.306;2023-05-16T12:21:37;5.65;;;1.63;;
77076;SDS011;66003;52.286;104.306;2023-05-16T12:24:04;5.78;;;2.05;;
77076;SDS011;66003;52.286;104.306;2023-05-16T12:26:37;3.05;;;1.33;;
77076;SDS011;66003;52.286;104.306;2023-05-16T12:29:04;6.30;;;2.05;;
77076;SDS011;66003;52.286;104.306;2023-05-16T12:31:34;6.07;;;1.70;;
77076;SDS011;66003;52.286;104.306;2023-05-16T12:34:01;6.05;;;1.67;;
77076;SDS011;66003;52.286;104.306;2023-05-16T12:36:31;6.78;;;1.15;;
77076;SDS011;66003;52.286;104.306;2023-05-16T12:39:02;7.55;;;2.13;;
77076;SDS011;66003;52.286;104.306;2023-05-16T12:41:30;5.53;;;1.73;;
77076;SDS011;66003;52.286;104.306;2023-05-16T12:44:14;6.07;;;1.67;;
77076;SDS011;66003;52.286;104.306;2023-05-16T12:46:50;3.78;;;1.67;;
77076;SDS011;66003;52.286;104.306;2023-05-16T12:49:20;3.90;;;1.27;;
77076;SDS011;66003;52.286;104.306;2023-05-16T12:51:48;6.00;;;1.38;;
77076;SDS011;66003;52.286;104.306;2023-05-16T12:54:15;3.85;;;1.70;;
77076;SDS011;66003;52.286;104.306;2023-05-16T12:56:42;6.38;;;1.20;;
77076;SDS011;66003;52.286;104.306;2023-05-16T12:59:09;7.95;;;1.67;;
77076;SDS011;66003;52.286;104.306;2023-05-16T13:01:36;4.35;;;1.50;;
77076;SDS011;66003;52.286;104.306;2023-05-16T13:04:05;4.32;;;1.75;;
77076;SDS011;66003;52.286;104.306;2023-05-16T13:06:31;3.90;;;1.88;;
77076;SDS011;66003;52.286;104.306;2023-05-16T13:08:57;6.60;;;1.70;;
77076;SDS011;66003;52.286;104.306;2023-05-16T13:11:24;4.65;;;1.95;;
77076;SDS011;66003;52.286;104.306;2023-05-16T13:13:51;8.75;;;2.08;;
77076;SDS011;66003;52.286;104.306;2023-05-16T13:16:17;4.82;;;2.13;;
77076;SDS011;66003;52.286;104.306;2023-05-16T13:18:43;5.97;;;1.95;;
77076;SDS011;66003;52.286;104.306;2023-05-16T13:23:36;5.32;;;2.00;;
77076;SDS011;66003;52.286;104.306;2023-05-16T13:26:02;11.73;;;1.95;;
77076;SDS011;66003;52.286;104.306;2023-05-16T13:28:30;7.88;;;1.92;;
77076;SDS011;66003;52.286;104.306;2023-05-16T13:30:57;4.50;;;1.52;;
77076;SDS011;66003;52.286;104.306;2023-05-16T13:33:23;5.18;;;1.67;;
77076;SDS011;66003;52.286;104.306;2023-05-16T13:35:49;10.13;;;2.10;;
77076;SDS011;66003;52.286;104.306;2023-05-16T13:40:43;16.08;;;2.75;;
77076;SDS011;66003;52.286;104.306;2023-05-16T13:43:10;6.53;;;2.13;;
77076;SDS011;66003;52.286;104.306;2023-05-16T13:45:38;9.32;;;3.03;;
77076;SDS011;66003;52.286;104.306;2023-05-16T13:48:05;7.78;;;2.53;;
77076;SDS011;66003;52.286;104.306;2023-05-16T13:50:32;11.98;;;4.80;;
77076;SDS011;66003;52.286;104.306;2023-05-16T13:52:58;19.63;;;6.78;;
77076;SDS011;66003;52.286;104.306;2023-05-16T13:55:24;17.77;;;6.63;;
77076;SDS011;66003;52.286;104.306;2023-05-16T13:57:50;15.13;;;5.90;;
77076;SDS011;66003;52.286;104.306;2023-05-16T14:00:16;19.27;;;6.43;;
77076;SDS011;66003;52.286;104.306;2023-05-16T14:02:43;7.93;;;3.40;;
77076;SDS011;66003;52.286;104.306;2023-05-16T14:05:10;16.98;;;6.43;;
77076;SDS011;66003;52.286;104.306;2023-05-16T14:07:36;16.52;;;6.07;;
77076;SDS011;66003;52.286;104.306;2023-05-16T14:10:02;16.33;;;6.07;;
77076;SDS011;66003;52.286;104.306;2023-05-16T14:12:31;16.55;;;5.40;;
77076;SDS011;66003;52.286;104.306;2023-05-16T14:14:57;12.77;;;4.88;;
77076;SDS011;66003;52.286;104.306;2023-05-16T14:17:24;19.75;;;5.90;;
77076;SDS011;66003;52.286;104.306;2023-05-16T14:19:50;15.77;;;4.35;;
77076;SDS011;66003;52.286;104.306;2023-05-16T14:22:18;11.90;;;5.25;;
77076;SDS011;66003;52.286;104.306;2023-05-16T14:24:44;10.10;;;3.70;;
77076;SDS011;66003;52.286;104.306;2023-05-16T14:27:10;9.57;;;3.85;;
77076;SDS011;66003;52.286;104.306;2023-05-16T14:29:36;9.43;;;4.35;;
77076;SDS011;66003;52.286;104.306;2023-05-16T14:32:03;9.73;;;3.58;;
77076;SDS011;66003;52.286;104.306;2023-05-16T14:34:29;10.80;;;5.00;;
77076;SDS011;66003;52.286;104.306;2023-05-16T14:36:56;10.15;;;5.13;;
77076;SDS011;66003;52.286;104.306;2023-05-16T14:39:22;11.98;;;5.35;;
77076;SDS011;66003;52.286;104.306;2023-05-16T14:41:48;14.80;;;6.03;;
77076;SDS011;66003;52.286;104.306;2023-05-16T14:44:14;13.43;;;5.28;;
77076;SDS011;66003;52.286;104.306;2023-05-16T14:46:40;17.48;;;4.88;;
77076;SDS011;66003;52.286;104.306;2023-05-16T14:49:07;9.57;;;4.97;;
77076;SDS011;66003;52.286;104.306;2023-05-16T14:51:33;14.07;;;5.38;;
77076;SDS011;66003;52.286;104.306;2023-05-16T14:54:00;11.40;;;4.15;;
77076;SDS011;66003;52.286;104.306;2023-05-16T14:56:26;6.00;;;2.80;;
77076;SDS011;66003;52.286;104.306;2023-05-16T15:01:18;10.20;;;3.97;;
77076;SDS011;66003;52.286;104.306;2023-05-16T15:03:45;13.48;;;4.72;;
77076;SDS011;66003;52.286;104.306;2023-05-16T15:06:11;12.07;;;4.55;;
77076;SDS011;66003;52.286;104.306;2023-05-16T15:08:37;10.80;;;4.80;;
77076;SDS011;66003;52.286;104.306;2023-05-16T15:11:05;12.25;;;5.32;;
77076;SDS011;66003;52.286;104.306;2023-05-16T15:13:31;13.52;;;4.15;;
77076;SDS011;66003;52.286;104.306;2023-05-16T15:15:57;16.20;;;4.07;;
77076;SDS011;66003;52.286;104.306;2023-05-16T15:18:23;12.10;;;5.07;;
77076;SDS011;66003;52.286;104.306;2023-05-16T15:20:50;13.07;;;4.93;;
77076;SDS011;66003;52.286;104.306;2023-05-16T15:23:17;9.85;;;4.70;;
77076;SDS011;66003;52.286;104.306;2023-05-16T15:25:44;8.32;;;3.42;;
77076;SDS011;66003;52.286;104.306;2023-05-16T15:28:10;10.75;;;4.03;;
77076;SDS011;66003;52.286;104.306;2023-05-16T15:30:36;9.80;;;4.80;;
77076;SDS011;66003;52.286;104.306;2023-05-16T15:33:02;8.38;;;3.20;;
77076;SDS011;66003;52.286;104.306;2023-05-16T15:35:29;8.90;;;3.28;;
77076;SDS011;66003;52.286;104.306;2023-05-16T15:37:55;7.95;;;3.58;;
77076;SDS011;66003;52.286;104.306;2023-05-16T15:40:23;9.02;;;3.20;;
77076;SDS011;66003;52.286;104.306;2023-05-16T15:47:42;6.38;;;2.72;;
77076;SDS011;66003;52.286;104.306;2023-05-16T15:50:08;5.72;;;3.20;;